Time;durP1;ratioP1;P1;durP2;ratioP2;P2;SDS_P1;SDS_P2;PMS_P1;PMS_P2;Temp;Humidity;BMP_temperature;BMP_pressure;BME280_temperature;BME280_humidity;BME280_pressure;Samples;Min_cycle;Max_cycle;Signal;HPM_P1;HPM_P2
2022/03/22 00:00:19;;;;;;;39.42;27.27;;;12.50;83.90;;;;;;5090724;28;20078;-83
2022/03/22 00:02:45;;;;;;;43.22;28.48;;;12.50;84.20;;;;;;5073303;28;20431;-83
2022/03/22 00:05:12;;;;;;;47.97;27.52;;;12.50;84.30;;;;;;5056896;28;20119;-83
2022/03/22 00:07:37;;;;;;;39.15;27.00;;;12.50;84.50;;;;;;5040519;28;20032;-83
2022/03/22 00:10:04;;;;;;;35.67;26.48;;;12.50;84.50;;;;;;5041488;28;20388;-83
2022/03/22 00:12:35;;;;;;;39.33;26.55;;;12.50;84.60;;;;;;5061744;28;20037;-83
2022/03/22 00:15:03;;;;;;;38.92;27.83;;;12.50;84.60;;;;;;5074104;28;20032;-83
2022/03/22 00:17:29;;;;;;;35.97;25.92;;;12.50;84.60;;;;;;5057431;28;20025;-82
2022/03/22 00:19:55;;;;;;;40.03;27.30;;;12.40;84.80;;;;;;5056229;28;20029;-83
2022/03/22 00:22:21;;;;;;;36.20;26.13;;;12.40;85.00;;;;;;5074409;28;20044;-82
2022/03/22 00:24:47;;;;;;;37.00;27.77;;;12.40;85.10;;;;;;5040137;28;20028;-82
2022/03/22 00:27:12;;;;;;;42.83;27.17;;;12.40;85.20;;;;;;5073380;28;20029;-82
2022/03/22 00:29:38;;;;;;;38.60;26.55;;;12.40;85.20;;;;;;5090199;28;20027;-83
2022/03/22 00:32:07;;;;;;;41.10;27.80;;;12.30;85.40;;;;;;5074414;28;20032;-83
2022/03/22 00:34:32;;;;;;;37.90;27.15;;;12.30;85.40;;;;;;5056466;28;20360;-83
2022/03/22 00:36:58;;;;;;;42.08;27.35;;;12.30;85.40;;;;;;5089655;28;20028;-83
2022/03/22 00:39:25;;;;;;;41.33;28.15;;;12.30;85.60;;;;;;5073117;28;20429;-82
2022/03/22 00:41:52;;;;;;;38.13;26.52;;;12.30;85.60;;;;;;5088527;28;20537;-83
2022/03/22 00:44:18;;;;;;;40.38;27.60;;;12.30;85.60;;;;;;5074024;28;20029;-83
2022/03/22 00:46:44;;;;;;;41.03;25.63;;;12.30;85.90;;;;;;5072579;28;20052;-84
2022/03/22 00:49:10;;;;;;;41.92;28.38;;;12.20;85.90;;;;;;5039498;28;20062;-83
2022/03/22 00:51:36;;;;;;;45.70;30.38;;;12.20;86.10;;;;;;5038781;28;20510;-82
2022/03/22 00:54:02;;;;;;;44.95;30.27;;;12.20;86.20;;;;;;5091642;28;20038;-83
2022/03/22 00:56:29;;;;;;;41.42;31.65;;;12.20;86.20;;;;;;5094042;28;20094;-84
2022/03/22 01:01:59;;;;;;;42.47;31.88;;;12.10;86.30;;;;;;5021404;28;20042;-83
2022/03/22 01:04:24;;;;;;;45.50;31.77;;;12.10;86.20;;;;;;4984723;28;20116;-82
2022/03/22 01:06:50;;;;;;;49.72;34.55;;;12.10;86.50;;;;;;5017859;28;20045;-83
2022/03/22 01:09:16;;;;;;;54.13;36.30;;;12.10;86.50;;;;;;5039228;28;20020;-83
2022/03/22 01:11:42;;;;;;;48.05;34.45;;;12.10;86.40;;;;;;5055738;28;20040;-83
2022/03/22 01:14:08;;;;;;;53.95;34.42;;;12.00;86.40;;;;;;5055382;28;20029;-82
2022/03/22 01:16:34;;;;;;;45.80;32.58;;;12.00;86.60;;;;;;5055943;28;20016;-83
2022/03/22 01:19:00;;;;;;;49.20;31.80;;;12.00;86.70;;;;;;5072004;28;20031;-83
2022/03/22 01:21:26;;;;;;;47.72;30.73;;;12.00;86.90;;;;;;5055601;28;20566;-82
2022/03/22 01:23:52;;;;;;;45.60;30.38;;;12.00;87.00;;;;;;5071874;28;20032;-82
2022/03/22 01:26:19;;;;;;;45.22;29.05;;;11.90;86.90;;;;;;5038854;28;20114;-83
2022/03/22 01:28:46;;;;;;;42.47;29.33;;;11.90;87.10;;;;;;5055807;28;20029;-84
2022/03/22 01:31:12;;;;;;;38.70;27.17;;;11.90;87.00;;;;;;5055375;28;20135;-84
2022/03/22 01:33:38;;;;;;;39.70;26.83;;;11.90;87.20;;;;;;5038954;28;20442;-83
2022/03/22 01:36:04;;;;;;;38.63;26.77;;;11.80;87.40;;;;;;5054787;28;20099;-84
2022/03/22 01:38:29;;;;;;;37.35;25.48;;;11.80;87.40;;;;;;5072410;28;20032;-83
2022/03/22 01:40:55;;;;;;;36.40;25.63;;;11.80;87.50;;;;;;5088601;28;20063;-84
2022/03/22 01:43:21;;;;;;;35.90;25.83;;;11.80;87.60;;;;;;5072066;28;20060;-83
2022/03/22 01:45:49;;;;;;;36.00;25.20;;;11.80;87.60;;;;;;5038574;28;20397;-84
2022/03/22 01:48:15;;;;;;;39.10;25.10;;;11.70;87.70;;;;;;5073317;28;20028;-84
2022/03/22 01:50:41;;;;;;;34.50;24.73;;;11.70;87.70;;;;;;5072036;28;20047;-84
2022/03/22 01:53:10;;;;;;;37.25;26.00;;;11.70;87.80;;;;;;5072761;28;20032;-84
2022/03/22 01:55:36;;;;;;;34.50;24.75;;;11.60;88.00;;;;;;5089340;28;20496;-84
2022/03/22 01:58:03;;;;;;;38.10;26.10;;;11.60;88.00;;;;;;5058889;28;20021;-84
2022/03/22 02:00:29;;;;;;;43.13;27.17;;;11.60;88.10;;;;;;5094421;28;20025;-84
2022/03/22 02:05:56;;;;;;;40.45;25.35;;;11.50;88.20;;;;;;5097380;28;20105;-85
2022/03/22 02:08:28;;;;;;;39.28;25.80;;;11.50;88.40;;;;;;5110050;28;20021;-85
2022/03/22 02:10:54;;;;;;;38.22;24.75;;;11.40;88.60;;;;;;5095272;28;20004;-87
2022/03/22 02:13:20;;;;;;;36.20;25.75;;;11.40;88.80;;;;;;5069333;28;20032;-84
2022/03/22 02:15:49;;;;;;;38.90;25.95;;;11.40;88.90;;;;;;5077697;28;20142;-84
2022/03/22 02:18:16;;;;;;;38.20;25.15;;;11.40;88.90;;;;;;5055202;28;20027;-84
2022/03/22 02:20:42;;;;;;;36.83;25.33;;;11.30;89.10;;;;;;5054994;28;20488;-84
2022/03/22 02:23:34;;;;;;;32.05;23.63;;;11.30;89.20;;;;;;5054649;28;20032;-84
2022/03/22 02:26:00;;;;;;;36.17;24.92;;;11.30;89.40;;;;;;5071542;28;20021;-84
2022/03/22 02:28:25;;;;;;;34.22;24.10;;;11.30;89.50;;;;;;5054531;28;20083;-83
2022/03/22 02:30:52;;;;;;;33.65;23.98;;;11.20;89.50;;;;;;5054343;28;20037;-84
2022/03/22 02:33:18;;;;;;;35.75;23.88;;;11.20;89.70;;;;;;5071227;28;20025;-84
2022/03/22 02:35:44;;;;;;;35.75;24.33;;;11.20;89.60;;;;;;5056609;28;20031;-83
2022/03/22 02:38:10;;;;;;;37.03;24.73;;;11.20;89.60;;;;;;5072573;28;20028;-83
2022/03/22 02:40:36;;;;;;;35.67;24.55;;;11.10;89.70;;;;;;5088264;28;20025;-84
2022/03/22 02:43:02;;;;;;;33.15;22.52;;;11.10;89.90;;;;;;5071900;28;20043;-84
2022/03/22 02:45:28;;;;;;;32.55;23.25;;;11.10;89.80;;;;;;5071337;28;20392;-84
2022/03/22 02:47:54;;;;;;;38.85;24.33;;;11.10;90.00;;;;;;5088086;28;20025;-87
2022/03/22 02:50:21;;;;;;;33.83;23.25;;;11.10;90.10;;;;;;5070419;28;20033;-84
2022/03/22 02:52:47;;;;;;;30.67;22.27;;;11.10;90.20;;;;;;5071658;28;20029;-84
2022/03/22 02:55:13;;;;;;;33.35;23.15;;;11.00;90.20;;;;;;5071144;28;20465;-84
2022/03/22 02:57:40;;;;;;;37.25;22.95;;;11.00;90.50;;;;;;5071393;28;20035;-83
2022/03/22 03:00:08;;;;;;;33.20;23.00;;;11.00;90.30;;;;;;5054446;28;20031;-84
2022/03/22 03:02:44;;;;;;;34.00;23.25;;;11.00;90.30;;;;;;5072027;28;20117;-83
2022/03/22 03:05:10;;;;;;;33.42;23.02;;;11.00;90.30;;;;;;5072889;28;20035;-84
2022/03/22 03:07:36;;;;;;;35.67;23.25;;;10.90;90.20;;;;;;5058314;28;20067;-83
2022/03/22 03:10:03;;;;;;;32.47;23.15;;;10.90;90.30;;;;;;5091276;28;20060;-84
2022/03/22 03:12:28;;;;;;;33.55;22.98;;;10.90;90.40;;;;;;5091524;28;20025;-85
2022/03/22 03:14:54;;;;;;;33.28;22.98;;;10.90;90.30;;;;;;5041237;28;20024;-84
2022/03/22 03:17:20;;;;;;;35.95;23.25;;;10.80;90.50;;;;;;5041344;28;20033;-84
2022/03/22 03:19:45;;;;;;;35.60;23.70;;;10.80;90.50;;;;;;5074444;28;20094;-84
2022/03/22 03:22:11;;;;;;;36.30;24.08;;;10.80;90.50;;;;;;5073980;28;20119;-84
2022/03/22 03:24:37;;;;;;;34.03;22.33;;;10.70;90.50;;;;;;5041251;28;20377;-84
2022/03/22 03:27:03;;;;;;;35.70;23.77;;;10.70;90.60;;;;;;5075167;28;20024;-84
2022/03/22 03:29:29;;;;;;;33.97;23.75;;;10.70;90.60;;;;;;5057672;28;20176;-84
2022/03/22 03:31:55;;;;;;;32.97;22.67;;;10.60;90.70;;;;;;5040874;28;20025;-84
2022/03/22 03:34:21;;;;;;;34.17;23.20;;;10.60;90.70;;;;;;5074879;28;20033;-84
2022/03/22 03:36:47;;;;;;;35.13;23.00;;;10.60;90.70;;;;;;5075609;28;20066;-84
2022/03/22 03:39:13;;;;;;;33.90;23.17;;;10.50;90.70;;;;;;5075258;28;20028;-83
2022/03/22 03:41:54;;;;;;;38.25;23.65;;;10.50;90.70;;;;;;5075127;28;20037;-83
2022/03/22 03:47:18;;;;;;;36.88;24.48;;;10.40;91.00;;;;;;5079274;28;20039;-83
2022/03/22 03:49:55;;;;;;;33.25;22.20;;;10.40;90.90;;;;;;5094606;28;20112;-84
2022/03/22 03:52:25;;;;;;;32.42;23.55;;;10.40;91.10;;;;;;5090937;28;20024;-84
2022/03/22 03:54:52;;;;;;;34.58;22.63;;;10.30;91.10;;;;;;5057286;28;20028;-84
2022/03/22 03:57:18;;;;;;;33.28;22.73;;;10.30;91.10;;;;;;5057188;28;20039;-84
2022/03/22 03:59:44;;;;;;;35.72;23.42;;;10.30;91.20;;;;;;5057198;28;20029;-83
2022/03/22 04:02:11;;;;;;;32.53;22.52;;;10.20;91.20;;;;;;5090320;28;20048;-85
2022/03/22 04:04:38;;;;;;;30.90;21.25;;;10.20;91.30;;;;;;5073850;28;20033;-83
2022/03/22 04:07:06;;;;;;;33.72;22.73;;;10.20;91.40;;;;;;5090286;28;20457;-85
2022/03/22 04:09:32;;;;;;;34.25;22.40;;;10.20;91.50;;;;;;5056991;28;20047;-83
2022/03/22 04:11:59;;;;;;;29.45;21.50;;;10.20;91.60;;;;;;5090322;28;20342;-84
2022/03/22 04:14:24;;;;;;;30.65;21.00;;;10.10;91.60;;;;;;5089988;28;20031;-83
2022/03/22 04:16:50;;;;;;;31.67;21.42;;;10.10;91.70;;;;;;5075160;28;20024;-83
2022/03/22 04:19:16;;;;;;;35.05;21.48;;;10.10;91.80;;;;;;5075216;28;20031;-84
2022/03/22 04:21:42;;;;;;;30.75;20.95;;;10.10;92.10;;;;;;5042574;28;20082;-83
2022/03/22 04:24:10;;;;;;;29.58;21.23;;;10.10;91.90;;;;;;5075248;28;20032;-84
2022/03/22 04:26:37;;;;;;;29.67;20.92;;;10.10;91.90;;;;;;5041325;28;20048;-82
2022/03/22 04:34:35;;;;;;;31.25;21.20;;;10.00;92.00;;;;;;5059973;28;20039;-83
2022/03/22 04:37:01;;;;;;;33.97;21.40;;;10.00;92.10;;;;;;5057026;28;20032;-83
2022/03/22 04:39:28;;;;;;;34.60;21.50;;;9.90;92.10;;;;;;5056236;28;20028;-82
2022/03/22 04:41:55;;;;;;;34.47;23.08;;;9.90;92.10;;;;;;5056184;28;20052;-83
2022/03/22 04:44:20;;;;;;;32.78;22.58;;;9.90;92.20;;;;;;5089529;28;20020;-84
2022/03/22 04:46:46;;;;;;;33.15;22.42;;;9.90;92.30;;;;;;5073493;28;20074;-83
2022/03/22 04:49:12;;;;;;;35.00;23.33;;;9.90;92.30;;;;;;5039419;28;20460;-83
2022/03/22 04:57:07;;;;;;;32.20;22.77;;;9.80;92.60;;;;;;5073896;28;20452;-85
2022/03/22 04:59:33;;;;;;;32.72;22.85;;;9.80;92.70;;;;;;5056110;28;20060;-83
2022/03/22 05:01:59;;;;;;;35.17;22.45;;;9.80;92.80;;;;;;5039098;28;20059;-84
2022/03/22 05:04:25;;;;;;;33.78;22.17;;;9.80;92.80;;;;;;5038834;28;20028;-83
2022/03/22 05:06:52;;;;;;;35.53;22.80;;;9.80;92.90;;;;;;5072225;28;20066;-83
2022/03/22 05:09:18;;;;;;;33.75;22.52;;;9.70;92.90;;;;;;5088927;28;20023;-84
2022/03/22 05:11:44;;;;;;;32.95;22.02;;;9.70;93.10;;;;;;5055600;28;20036;-84
2022/03/22 05:14:09;;;;;;;32.13;23.15;;;9.70;93.20;;;;;;5055934;28;20373;-84
2022/03/22 05:16:35;;;;;;;31.30;22.27;;;9.70;93.30;;;;;;5039332;28;20021;-84
2022/03/22 05:19:02;;;;;;;32.83;21.60;;;9.70;93.20;;;;;;5039244;28;20024;-83
2022/03/22 05:21:27;;;;;;;32.17;21.02;;;9.70;93.20;;;;;;5073703;28;20020;-83
2022/03/22 05:23:54;;;;;;;33.05;22.48;;;9.70;93.10;;;;;;5055864;28;20353;-83
2022/03/22 05:26:20;;;;;;;33.13;22.40;;;9.70;92.90;;;;;;5072060;28;20021;-84
2022/03/22 05:28:46;;;;;;;31.45;21.65;;;9.70;93.00;;;;;;5038582;28;20027;-84
2022/03/22 05:31:14;;;;;;;30.80;22.23;;;9.70;93.30;;;;;;5038856;28;20028;-85
2022/03/22 05:33:40;;;;;;;34.17;22.65;;;9.70;93.50;;;;;;5039134;28;20089;-84
2022/03/22 05:36:07;;;;;;;32.70;22.35;;;9.70;93.40;;;;;;5073711;28;20020;-84
2022/03/22 05:38:33;;;;;;;34.05;22.40;;;9.80;93.40;;;;;;5073813;28;20032;-84
2022/03/22 05:41:02;;;;;;;34.05;21.65;;;9.70;93.40;;;;;;5114938;28;20032;-84
2022/03/22 05:43:28;;;;;;;32.22;22.38;;;9.80;93.40;;;;;;5117065;28;20032;-85
2022/03/22 05:45:55;;;;;;;34.42;23.45;;;9.80;93.60;;;;;;5099783;28;20032;-85
2022/03/22 05:48:22;;;;;;;33.13;22.85;;;9.70;93.70;;;;;;5099279;28;20024;-85
2022/03/22 05:50:47;;;;;;;32.42;23.17;;;9.70;93.90;;;;;;5082653;28;20028;-83
2022/03/22 05:53:14;;;;;;;33.72;23.85;;;9.80;94.00;;;;;;5098935;28;20060;-86
2022/03/22 05:55:40;;;;;;;33.30;22.58;;;9.70;94.10;;;;;;5072195;28;20483;-82
2022/03/22 05:58:07;;;;;;;31.50;22.35;;;9.80;94.20;;;;;;5077712;28;20024;-82
2022/03/22 06:00:33;;;;;;;34.92;24.02;;;9.80;94.30;;;;;;5093622;28;20020;-83
2022/03/22 06:03:00;;;;;;;32.28;22.55;;;9.80;94.30;;;;;;5093543;28;20074;-83
2022/03/22 06:05:26;;;;;;;34.85;23.42;;;9.80;94.50;;;;;;5075826;28;20028;-84
2022/03/22 06:07:51;;;;;;;34.95;23.55;;;9.80;94.60;;;;;;5079294;28;20035;-83
2022/03/22 06:10:17;;;;;;;31.40;22.27;;;9.80;94.70;;;;;;5075620;28;20077;-84
2022/03/22 06:12:52;;;;;;;33.20;22.20;;;9.80;94.80;;;;;;5075341;28;20036;-84
2022/03/22 06:15:20;;;;;;;33.25;22.02;;;9.80;94.80;;;;;;5056584;28;20024;-79
2022/03/22 06:18:00;;;;;;;32.42;22.38;;;9.80;94.80;;;;;;5092807;28;20091;-81
2022/03/22 06:20:28;;;;;;;34.83;22.63;;;9.80;94.90;;;;;;5068708;28;20111;-84
2022/03/22 06:22:55;;;;;;;31.63;22.10;;;9.80;94.90;;;;;;5067486;28;20362;-83
2022/03/22 06:25:21;;;;;;;32.42;21.10;;;9.80;95.00;;;;;;5051931;28;20028;-84
2022/03/22 06:27:49;;;;;;;32.15;21.35;;;9.80;94.90;;;;;;5086659;28;20023;-83
2022/03/22 06:30:17;;;;;;;34.35;21.65;;;9.80;94.80;;;;;;5071681;28;20029;-83
2022/03/22 06:32:47;;;;;;;32.00;21.55;;;9.90;94.70;;;;;;5058347;28;20127;-83
2022/03/22 06:35:22;;;;;;;33.70;21.45;;;9.90;94.60;;;;;;5075335;28;20107;-83
2022/03/22 06:37:49;;;;;;;31.58;22.33;;;9.90;94.40;;;;;;5087457;28;20021;-83
2022/03/22 06:40:17;;;;;;;30.85;21.60;;;9.90;94.40;;;;;;5072311;28;20056;-83
2022/03/22 06:42:43;;;;;;;37.20;22.20;;;9.90;94.30;;;;;;5058566;28;20041;-84
2022/03/22 06:45:10;;;;;;;31.60;20.95;;;9.90;94.20;;;;;;5048669;28;20490;-83
2022/03/22 06:47:38;;;;;;;30.35;20.33;;;9.90;94.10;;;;;;5035389;28;20022;-84
2022/03/22 06:50:04;;;;;;;27.38;20.38;;;10.00;94.00;;;;;;5035458;28;20101;-84
2022/03/22 06:52:30;;;;;;;29.35;20.77;;;10.00;94.00;;;;;;5034937;28;20026;-84
2022/03/22 06:54:56;;;;;;;31.05;20.90;;;10.00;94.00;;;;;;5034693;28;20028;-84
2022/03/22 06:57:21;;;;;;;32.65;21.70;;;10.10;94.00;;;;;;5035865;28;20101;-84
2022/03/22 06:59:47;;;;;;;28.33;20.05;;;10.10;93.90;;;;;;5018469;28;20508;-84
2022/03/22 07:02:13;;;;;;;32.42;21.15;;;10.10;93.60;;;;;;5056374;28;20037;-84
2022/03/22 07:04:39;;;;;;;29.55;20.25;;;10.10;93.60;;;;;;5056950;28;20335;-87
2022/03/22 07:07:04;;;;;;;28.63;19.77;;;10.20;93.50;;;;;;5034756;28;20090;-84
2022/03/22 07:09:30;;;;;;;33.55;20.90;;;10.20;93.40;;;;;;5045958;28;20453;-81
2022/03/22 07:11:56;;;;;;;31.75;22.10;;;10.30;93.30;;;;;;5051287;28;20533;-83
2022/03/22 07:14:24;;;;;;;30.48;19.92;;;10.30;93.10;;;;;;5053942;28;20025;-83
2022/03/22 07:16:51;;;;;;;34.20;20.48;;;10.30;92.80;;;;;;5053449;28;20029;-83
2022/03/22 07:19:19;;;;;;;32.30;19.92;;;10.40;92.70;;;;;;5053840;28;20032;-83
2022/03/22 07:21:45;;;;;;;34.35;19.80;;;10.40;92.50;;;;;;5047954;28;20389;-82
2022/03/22 07:24:12;;;;;;;29.60;19.73;;;10.50;92.20;;;;;;5052589;28;20032;-83
2022/03/22 07:26:40;;;;;;;27.35;18.25;;;10.40;92.00;;;;;;5052999;28;20025;-81
2022/03/22 07:29:07;;;;;;;31.10;19.25;;;10.50;91.80;;;;;;5046056;28;20059;-82
2022/03/22 07:31:38;;;;;;;27.20;18.30;;;10.50;91.60;;;;;;5029335;28;20032;-84
2022/03/22 07:34:06;;;;;;;30.15;17.80;;;10.60;91.30;;;;;;5050732;28;20021;-83
2022/03/22 07:36:32;;;;;;;30.20;19.55;;;10.60;91.20;;;;;;5044320;28;20116;-83
2022/03/22 07:39:00;;;;;;;27.00;17.85;;;10.70;91.00;;;;;;5029600;28;20052;-82
2022/03/22 07:41:26;;;;;;;30.25;18.17;;;10.70;90.90;;;;;;5044886;28;20021;-84
2022/03/22 07:43:54;;;;;;;27.85;18.35;;;10.80;90.60;;;;;;5050008;28;20461;-83
2022/03/22 07:46:20;;;;;;;27.15;18.13;;;10.80;90.30;;;;;;5086033;28;20123;-82
2022/03/22 07:48:46;;;;;;;27.95;17.63;;;10.80;89.60;;;;;;5059310;28;20039;-82
2022/03/22 07:53:57;;;;;;;28.83;17.92;;;10.90;89.40;;;;;;5077436;28;20121;-83
2022/03/22 07:56:22;;;;;;;25.05;17.30;;;11.00;89.20;;;;;;5094426;28;20032;-83
2022/03/22 07:58:48;;;;;;;28.45;18.30;;;11.00;87.40;;;;;;5070774;28;20028;-83
2022/03/22 08:01:14;;;;;;;26.10;17.20;;;11.10;86.80;;;;;;5069639;28;20035;-83
2022/03/22 08:03:39;;;;;;;30.38;18.75;;;11.20;86.40;;;;;;5075683;28;20036;-84
2022/03/22 08:06:07;;;;;;;27.95;18.58;;;11.20;85.80;;;;;;5054128;28;20016;-83
2022/03/22 08:08:34;;;;;;;26.58;17.90;;;11.20;86.10;;;;;;5065676;28;20016;-83
2022/03/22 08:11:00;;;;;;;26.25;16.58;;;11.30;85.40;;;;;;5062860;28;20035;-84
2022/03/22 08:13:26;;;;;;;28.70;17.55;;;11.40;84.50;;;;;;5076606;28;20032;-83
2022/03/22 08:15:52;;;;;;;28.23;18.45;;;11.40;84.00;;;;;;5058355;28;20023;-84
2022/03/22 08:18:18;;;;;;;27.52;17.45;;;11.50;82.40;;;;;;5046604;28;20028;-84
2022/03/22 08:20:44;;;;;;;26.33;17.23;;;11.60;82.50;;;;;;5059837;28;20020;-83
2022/03/22 08:23:10;;;;;;;25.40;16.98;;;11.60;82.10;;;;;;5042542;28;20036;-84
2022/03/22 08:25:37;;;;;;;25.23;16.88;;;11.70;82.10;;;;;;5055509;28;20021;-84
2022/03/22 08:28:06;;;;;;;23.95;17.70;;;11.70;82.00;;;;;;5056499;28;20033;-83
2022/03/22 08:30:33;;;;;;;26.73;17.38;;;11.80;81.60;;;;;;5073699;28;20484;-84
2022/03/22 08:33:00;;;;;;;24.48;15.93;;;11.90;81.60;;;;;;5056362;28;20028;-84
2022/03/22 08:35:28;;;;;;;26.13;17.48;;;12.00;81.20;;;;;;5056571;28;20027;-84
2022/03/22 08:37:54;;;;;;;23.95;16.42;;;12.00;81.20;;;;;;5060389;28;20027;-83
2022/03/22 08:40:21;;;;;;;27.13;17.55;;;12.10;81.20;;;;;;5080856;28;20021;-82
2022/03/22 08:42:48;;;;;;;26.67;17.38;;;12.20;80.50;;;;;;5073772;28;20111;-82
2022/03/22 08:45:16;;;;;;;24.48;16.75;;;12.30;79.70;;;;;;5074227;28;20025;-82
2022/03/22 08:47:45;;;;;;;24.25;15.68;;;12.30;78.20;;;;;;5055709;28;20055;-83
2022/03/22 08:50:15;;;;;;;26.23;16.95;;;12.40;79.20;;;;;;5056360;28;20383;-82
2022/03/22 08:52:42;;;;;;;28.02;17.13;;;12.50;79.40;;;;;;5072598;28;20419;-82
2022/03/22 08:55:11;;;;;;;28.42;17.38;;;12.60;79.30;;;;;;5072422;28;20035;-82
2022/03/22 08:57:38;;;;;;;25.73;17.48;;;12.70;79.30;;;;;;5055652;28;20024;-82
2022/03/22 09:00:08;;;;;;;24.45;17.02;;;12.70;79.20;;;;;;5073859;28;20025;-83
2022/03/22 09:02:35;;;;;;;26.38;18.25;;;12.80;79.90;;;;;;5055062;28;20037;-83
2022/03/22 09:07:47;;;;;;;30.35;16.77;;;13.00;79.10;;;;;;5073663;28;20070;-82
2022/03/22 09:10:14;;;;;;;30.60;17.48;;;13.10;78.30;;;;;;5055686;28;20119;-83
2022/03/22 09:12:41;;;;;;;24.67;16.55;;;13.20;77.20;;;;;;5055699;28;20036;-82
2022/03/22 09:15:07;;;;;;;24.63;16.77;;;13.30;77.90;;;;;;5055748;28;20385;-83
2022/03/22 09:17:33;;;;;;;25.33;17.23;;;13.40;78.60;;;;;;5055153;28;20028;-83
2022/03/22 09:19:58;;;;;;;25.05;16.80;;;13.50;78.60;;;;;;5055971;28;20033;-84
2022/03/22 09:22:24;;;;;;;29.02;18.35;;;13.60;78.20;;;;;;5056583;28;20036;-82
2022/03/22 09:24:50;;;;;;;25.90;17.17;;;13.70;78.80;;;;;;5074060;28;20043;-83
2022/03/22 09:27:15;;;;;;;25.70;16.90;;;13.80;78.40;;;;;;5079207;28;20092;-83
2022/03/22 09:29:41;;;;;;;23.95;17.60;;;13.90;76.50;;;;;;5095955;28;20084;-83
2022/03/22 09:32:07;;;;;;;24.98;17.85;;;14.00;77.10;;;;;;5077074;28;20019;-84
2022/03/22 09:34:33;;;;;;;27.33;16.42;;;14.10;76.00;;;;;;5072593;28;20013;-88
2022/03/22 09:37:02;;;;;;;25.02;17.38;;;14.20;74.90;;;;;;5075897;28;20039;-82
2022/03/22 09:39:27;;;;;;;23.67;16.92;;;14.30;75.80;;;;;;5064793;28;20092;-81
2022/03/22 09:41:56;;;;;;;26.70;17.00;;;14.50;76.60;;;;;;5078848;28;20067;-82
2022/03/22 09:44:22;;;;;;;24.45;17.60;;;14.60;76.80;;;;;;5073013;28;20292;-83
2022/03/22 09:46:50;;;;;;;24.30;15.95;;;14.70;77.10;;;;;;5093910;28;20063;-84
2022/03/22 09:49:19;;;;;;;26.90;16.80;;;14.80;77.50;;;;;;5044460;28;20025;-81
2022/03/22 09:51:44;;;;;;;24.08;17.25;;;14.90;77.60;;;;;;5055550;28;20127;-82
2022/03/22 09:54:15;;;;;;;25.73;18.08;;;15.10;77.70;;;;;;5072190;28;20060;-81
2022/03/22 09:56:42;;;;;;;;;;;15.20;77.70;;;;;;5073700;28;20028;-83
2022/03/22 09:59:09;;;;;;;24.77;16.45;;;15.30;77.60;;;;;;5072884;28;19912;-82
2022/03/22 10:01:35;;;;;;;27.35;17.67;;;15.40;77.70;;;;;;5088365;28;20065;-84
2022/03/22 10:04:03;;;;;;;27.35;17.90;;;15.50;77.80;;;;;;5073196;28;20024;-82
2022/03/22 10:06:30;;;;;;;26.63;18.02;;;15.60;76.60;;;;;;5088579;28;20461;-82
2022/03/22 10:08:56;;;;;;;31.25;19.05;;;15.70;76.60;;;;;;5071451;28;20025;-82
2022/03/22 10:11:22;;;;;;;25.45;17.80;;;15.90;77.50;;;;;;5038592;28;20036;-82
2022/03/22 10:13:55;;;;;;;26.35;19.02;;;16.00;77.50;;;;;;5055080;28;20029;-83
2022/03/22 10:16:22;;;;;;;27.27;17.55;;;16.10;77.90;;;;;;5092369;28;20461;-82
2022/03/22 10:18:48;;;;;;;25.10;17.80;;;16.20;76.20;;;;;;5042075;28;20043;-83
2022/03/22 10:21:14;;;;;;;25.80;18.63;;;16.30;74.40;;;;;;5075916;28;20033;-82
2022/03/22 10:23:55;;;;;;;31.13;17.90;;;16.50;73.80;;;;;;5092225;28;20081;-83
2022/03/22 10:26:21;;;;;;;;;;;16.60;73.60;;;;;;5075566;28;20031;-82
2022/03/22 10:28:52;;;;;;;24.17;17.45;;;16.70;73.10;;;;;;5057478;28;19904;-83
2022/03/22 10:31:17;;;;;;;;;;;16.80;73.60;;;;;;5058781;28;20058;-83
2022/03/22 10:33:53;;;;;;;27.55;18.40;;;16.90;73.70;;;;;;5058517;28;19909;-82
2022/03/22 10:36:22;;;;;;;28.55;19.15;;;17.00;73.10;;;;;;5076074;28;20069;-83
2022/03/22 10:39:01;;;;;;;31.17;19.20;;;17.10;72.90;;;;;;5057782;28;20032;-82
2022/03/22 10:41:29;;;;;;;26.95;17.92;;;17.20;70.90;;;;;;5076515;28;20111;-82
2022/03/22 10:44:23;;;;;;;28.83;18.42;;;17.30;70.90;;;;;;5074850;28;20024;-83
2022/03/22 10:46:49;;;;;;;32.53;19.77;;;17.40;69.50;;;;;;5055467;28;20488;-83
2022/03/22 10:49:17;;;;;;;25.98;17.15;;;17.60;69.50;;;;;;5058128;28;20064;-82
2022/03/22 10:51:49;;;;;;;24.48;16.25;;;17.70;69.20;;;;;;5058322;28;20447;-83
2022/03/22 10:54:19;;;;;;;28.58;18.38;;;17.80;69.30;;;;;;5075998;28;20064;-83
2022/03/22 10:56:49;;;;;;;23.73;16.60;;;17.90;67.80;;;;;;5076051;28;20480;-82
2022/03/22 10:59:18;;;;;;;27.75;18.33;;;18.00;68.00;;;;;;5074859;28;20023;-82
2022/03/22 11:01:46;;;;;;;25.67;18.27;;;18.10;67.00;;;;;;5075708;28;20035;-83
2022/03/22 11:04:17;;;;;;;27.17;17.20;;;18.20;65.20;;;;;;5077934;28;20066;-83
2022/03/22 11:06:47;;;;;;;25.95;18.17;;;18.30;65.10;;;;;;5060034;28;20123;-82
2022/03/22 11:09:14;;;;;;;;;;;18.40;65.10;;;;;;5076568;28;20078;-82
2022/03/22 11:11:40;;;;;;;26.48;17.17;;;18.50;64.50;;;;;;5077128;28;19909;-87
2022/03/22 11:14:06;;;;;;;24.10;16.38;;;18.60;63.10;;;;;;5077097;28;20032;-82
2022/03/22 11:16:34;;;;;;;22.23;16.10;;;18.70;63.30;;;;;;5059481;28;20052;-83
2022/03/22 11:19:02;;;;;;;26.50;16.60;;;18.70;62.60;;;;;;5075232;28;20373;-84
2022/03/22 11:21:29;;;;;;;27.70;17.83;;;18.80;62.30;;;;;;5077439;28;20032;-82
2022/03/22 11:24:12;;;;;;;31.92;17.45;;;18.90;61.90;;;;;;5057403;28;20036;-83
2022/03/22 11:26:46;;;;;;;23.35;16.52;;;19.10;62.50;;;;;;5073691;28;20021;-83
2022/03/22 11:29:18;;;;;;;23.05;15.70;;;19.20;61.20;;;;;;5074579;28;20032;-84
2022/03/22 11:34:08;;;;;;;23.65;17.13;;;19.30;61.40;;;;;;5057810;28;20032;-82
2022/03/22 11:34:32;;;;;;;29.27;18.17;;;19.40;57.70;;;;;;5060403;28;20041;-82
2022/03/22 11:36:59;;;;;;;25.30;16.55;;;19.50;59.30;;;;;;5075418;28;20060;-83
2022/03/22 11:42:20;;;;;;;26.30;17.60;;;19.70;59.30;;;;;;5075491;28;20157;-82
2022/03/22 11:44:58;;;;;;;25.25;17.27;;;19.80;57.70;;;;;;5070830;28;20033;-82
2022/03/22 11:47:27;;;;;;;23.05;16.60;;;19.90;58.50;;;;;;5073590;28;20127;-83
2022/03/22 11:50:01;;;;;;;24.02;17.38;;;20.00;57.80;;;;;;5057636;28;20028;-83
2022/03/22 11:52:39;;;;;;;28.17;18.52;;;20.10;58.90;;;;;;5075389;28;20440;-83
2022/03/22 11:55:12;;;;;;;29.77;19.25;;;20.20;58.90;;;;;;5073849;28;20064;-84
2022/03/22 11:57:45;;;;;;;30.13;18.70;;;20.30;57.40;;;;;;5074098;28;20023;-83
2022/03/22 12:00:12;;;;;;;26.05;18.02;;;20.40;57.50;;;;;;5073897;28;20028;-83
2022/03/22 12:02:40;;;;;;;26.05;17.08;;;20.50;57.60;;;;;;5074750;28;20028;-81
2022/03/22 12:05:07;;;;;;;31.55;20.02;;;20.50;57.90;;;;;;5084408;28;20043;-86
2022/03/22 12:07:36;;;;;;;27.60;18.05;;;20.60;57.50;;;;;;5060887;28;20016;-82
2022/03/22 12:10:05;;;;;;;25.45;16.88;;;20.60;56.90;;;;;;5095385;28;20055;-83
2022/03/22 12:12:33;;;;;;;29.05;19.00;;;20.70;57.10;;;;;;5093846;28;20035;-82
2022/03/22 12:15:00;;;;;;;27.40;17.58;;;20.80;56.20;;;;;;5093496;28;20025;-84
2022/03/22 12:17:27;;;;;;;24.80;16.20;;;20.90;55.70;;;;;;5093997;28;20040;-83
2022/03/22 12:19:59;;;;;;;28.25;16.85;;;20.90;55.40;;;;;;5093520;28;20047;-83
2022/03/22 12:22:25;;;;;;;28.85;18.58;;;20.90;54.70;;;;;;5094983;28;20035;-84
2022/03/22 12:24:51;;;;;;;24.10;17.05;;;21.00;55.40;;;;;;5076796;28;20047;-83
2022/03/22 12:27:16;;;;;;;25.50;16.15;;;21.10;55.20;;;;;;5094812;28;20056;-83
2022/03/22 12:29:44;;;;;;;24.85;17.33;;;21.20;54.60;;;;;;5093434;28;20029;-83
2022/03/22 12:32:18;;;;;;;22.55;16.60;;;21.20;53.60;;;;;;5093303;28;20469;-81
2022/03/22 12:34:45;;;;;;;23.02;16.30;;;21.40;54.20;;;;;;5081773;28;20020;-82
2022/03/22 12:37:12;;;;;;;24.20;16.23;;;21.40;52.90;;;;;;5064535;28;20429;-81
2022/03/22 12:39:41;;;;;;;23.20;16.83;;;21.50;52.60;;;;;;5073227;28;20107;-82
2022/03/22 12:42:08;;;;;;;25.15;17.80;;;21.60;52.40;;;;;;5089779;28;20538;-83
2022/03/22 12:44:35;;;;;;;24.10;16.38;;;21.70;53.00;;;;;;5056319;28;20127;-84
2022/03/22 12:47:01;;;;;;;22.08;16.35;;;21.80;52.90;;;;;;5055886;28;20428;-83
2022/03/22 12:49:27;;;;;;;22.70;16.33;;;21.80;52.90;;;;;;5089352;28;20017;-84
2022/03/22 12:51:54;;;;;;;24.95;17.27;;;21.90;52.80;;;;;;5055905;28;20428;-84
2022/03/22 12:54:21;;;;;;;27.38;17.65;;;22.00;51.70;;;;;;5061756;28;20025;-82
2022/03/22 12:56:48;;;;;;;21.60;15.88;;;22.00;51.20;;;;;;5069210;28;20031;-83
2022/03/22 12:59:22;;;;;;;23.75;15.57;;;22.10;51.70;;;;;;5054507;28;20028;-84